sensor_id;sensor_type;location;lat;lon;timestamp;temperature;humidity
75517;DHT22;64097;52.548;13.406;2024-02-16T06:01:42;15.90;63.00
75517;DHT22;64097;52.548;13.406;2024-02-16T06:04:08;15.80;62.90
75517;DHT22;64097;52.548;13.406;2024-02-16T06:06:36;15.80;62.90
75517;DHT22;64097;52.548;13.406;2024-02-16T06:09:01;15.80;63.00
75517;DHT22;64097;52.548;13.406;2024-02-16T06:11:27;15.80;63.10
75517;DHT22;64097;52.548;13.406;2024-02-16T06:13:53;15.80;63.10
75517;DHT22;64097;52.548;13.406;2024-02-16T06:16:18;15.80;63.10
75517;DHT22;64097;52.548;13.406;2024-02-16T06:18:45;15.80;63.10
75517;DHT22;64097;52.548;13.406;2024-02-16T06:21:10;15.80;63.00
75517;DHT22;64097;52.548;13.406;2024-02-16T06:23:36;15.80;63.00
75517;DHT22;64097;52.548;13.406;2024-02-16T06:26:01;15.80;63.00
75517;DHT22;64097;52.548;13.406;2024-02-16T06:28:27;15.90;63.00
75517;DHT22;64097;52.548;13.406;2024-02-16T06:30:53;15.80;63.10
75517;DHT22;64097;52.548;13.406;2024-02-16T06:33:19;15.80;63.00
75517;DHT22;64097;52.548;13.406;2024-02-16T06:35:45;15.80;63.00
75517;DHT22;64097;52.548;13.406;2024-02-16T06:38:12;15.80;63.10
75517;DHT22;64097;52.548;13.406;2024-02-16T06:40:37;15.80;63.00
75517;DHT22;64097;52.548;13.406;2024-02-16T06:43:03;15.80;63.00
75517;DHT22;64097;52.548;13.406;2024-02-16T06:45:30;15.80;62.90
75517;DHT22;64097;52.548;13.406;2024-02-16T06:47:56;15.90;63.00
75517;DHT22;64097;52.548;13.406;2024-02-16T06:50:22;15.90;63.00
75517;DHT22;64097;52.548;13.406;2024-02-16T06:52:47;15.80;63.10
75517;DHT22;64097;52.548;13.406;2024-02-16T06:55:13;15.90;63.10
75517;DHT22;64097;52.548;13.406;2024-02-16T06:57:39;15.80;63.10
75517;DHT22;64097;52.548;13.406;2024-02-16T07:00:05;15.80;63.10
75517;DHT22;64097;52.548;13.406;2024-02-16T07:02:31;15.90;63.10
75517;DHT22;64097;52.548;13.406;2024-02-16T07:04:57;15.90;63.00
75517;DHT22;64097;52.548;13.406;2024-02-16T07:07:23;15.80;62.90
75517;DHT22;64097;52.548;13.406;2024-02-16T07:09:50;15.90;63.00
75517;DHT22;64097;52.548;13.406;2024-02-16T07:12:16;15.90;63.00
75517;DHT22;64097;52.548;13.406;2024-02-16T07:14:42;15.90;63.00
75517;DHT22;64097;52.548;13.406;2024-02-16T07:17:09;15.90;63.00
75517;DHT22;64097;52.548;13.406;2024-02-16T07:19:35;15.90;63.10
75517;DHT22;64097;52.548;13.406;2024-02-16T07:22:01;15.90;63.00
75517;DHT22;64097;52.548;13.406;2024-02-16T07:24:27;15.90;63.10
75517;DHT22;64097;52.548;13.406;2024-02-16T07:26:53;15.90;63.00
75517;DHT22;64097;52.548;13.406;2024-02-16T07:29:19;15.90;63.00
75517;DHT22;64097;52.548;13.406;2024-02-16T07:31:44;15.90;63.00
75517;DHT22;64097;52.548;13.406;2024-02-16T07:34:10;15.90;63.00
75517;DHT22;64097;52.548;13.406;2024-02-16T07:36:39;15.90;63.10
75517;DHT22;64097;52.548;13.406;2024-02-16T07:39:05;15.90;63.20
75517;DHT22;64097;52.548;13.406;2024-02-16T07:41:31;16.00;63.30
75517;DHT22;64097;52.548;13.406;2024-02-16T07:43:57;15.90;63.10
75517;DHT22;64097;52.548;13.406;2024-02-16T07:46:23;16.00;63.20
75517;DHT22;64097;52.548;13.406;2024-02-16T07:48:49;16.00;63.20
75517;DHT22;64097;52.548;13.406;2024-02-16T07:51:15;16.10;63.20
75517;DHT22;64097;52.548;13.406;2024-02-16T07:53:41;16.10;63.10
75517;DHT22;64097;52.548;13.406;2024-02-16T07:56:10;16.10;63.20
75517;DHT22;64097;52.548;13.406;2024-02-16T07:58:36;16.20;63.50
75517;DHT22;64097;52.548;13.406;2024-02-16T08:01:02;16.30;63.00
75517;DHT22;64097;52.548;13.406;2024-02-16T08:03:28;16.20;63.80
75517;DHT22;64097;52.548;13.406;2024-02-16T08:05:55;16.30;63.00
75517;DHT22;64097;52.548;13.406;2024-02-16T08:08:22;16.30;62.90
75517;DHT22;64097;52.548;13.406;2024-02-16T08:10:48;16.30;62.80
75517;DHT22;64097;52.548;13.406;2024-02-16T08:13:14;16.40;62.70
75517;DHT22;64097;52.548;13.406;2024-02-16T08:15:40;16.40;62.70
75517;DHT22;64097;52.548;13.406;2024-02-16T08:18:05;16.40;62.60
75517;DHT22;64097;52.548;13.406;2024-02-16T08:20:31;16.40;62.40
75517;DHT22;64097;52.548;13.406;2024-02-16T08:22:57;16.50;62.50
75517;DHT22;64097;52.548;13.406;2024-02-16T08:25:24;16.50;62.40
75517;DHT22;64097;52.548;13.406;2024-02-16T08:27:50;16.60;62.50
75517;DHT22;64097;52.548;13.406;2024-02-16T08:30:15;16.60;62.50
75517;DHT22;64097;52.548;13.406;2024-02-16T08:32:41;16.60;62.40
75517;DHT22;64097;52.548;13.406;2024-02-16T08:35:07;16.70;62.60
75517;DHT22;64097;52.548;13.406;2024-02-16T08:39:58;16.80;61.40
75517;DHT22;64097;52.548;13.406;2024-02-16T08:42:23;16.80;62.00
75517;DHT22;64097;52.548;13.406;2024-02-16T08:44:49;16.80;62.00
75517;DHT22;64097;52.548;13.406;2024-02-16T08:47:15;16.80;61.90
75517;DHT22;64097;52.548;13.406;2024-02-16T08:49:41;16.90;61.90
75517;DHT22;64097;52.548;13.406;2024-02-16T08:52:08;16.90;61.60
75517;DHT22;64097;52.548;13.406;2024-02-16T08:54:34;16.90;61.50
75517;DHT22;64097;52.548;13.406;2024-02-16T08:57:03;17.00;61.40
75517;DHT22;64097;52.548;13.406;2024-02-16T08:59:29;17.00;61.30
75517;DHT22;64097;52.548;13.406;2024-02-16T09:01:55;17.00;61.30
75517;DHT22;64097;52.548;13.406;2024-02-16T09:04:21;17.10;61.30
75517;DHT22;64097;52.548;13.406;2024-02-16T09:06:47;17.10;61.20
75517;DHT22;64097;52.548;13.406;2024-02-16T09:09:14;17.10;61.20
75517;DHT22;64097;52.548;13.406;2024-02-16T09:11:40;17.10;61.10
75517;DHT22;64097;52.548;13.406;2024-02-16T09:14:06;17.20;60.90
75517;DHT22;64097;52.548;13.406;2024-02-16T09:16:32;17.20;60.80
75517;DHT22;64097;52.548;13.406;2024-02-16T09:19:00;17.20;60.70
75517;DHT22;64097;52.548;13.406;2024-02-16T09:21:26;17.20;60.60
75517;DHT22;64097;52.548;13.406;2024-02-16T09:23:54;17.20;60.70
75517;DHT22;64097;52.548;13.406;2024-02-16T09:26:24;17.20;60.70
75517;DHT22;64097;52.548;13.406;2024-02-16T09:28:52;17.20;60.60
75517;DHT22;64097;52.548;13.406;2024-02-16T09:31:18;17.30;60.50
75517;DHT22;64097;52.548;13.406;2024-02-16T09:33:44;17.30;60.70
75517;DHT22;64097;52.548;13.406;2024-02-16T09:36:10;17.30;60.60
75517;DHT22;64097;52.548;13.406;2024-02-16T09:38:36;17.40;60.70
75517;DHT22;64097;52.548;13.406;2024-02-16T09:41:02;17.40;60.70
75517;DHT22;64097;52.548;13.406;2024-02-16T09:43:29;17.50;60.80
75517;DHT22;64097;52.548;13.406;2024-02-16T09:45:59;17.50;60.70
75517;DHT22;64097;52.548;13.406;2024-02-16T09:48:27;17.60;60.70
75517;DHT22;64097;52.548;13.406;2024-02-16T09:50:54;17.60;60.30
75517;DHT22;64097;52.548;13.406;2024-02-16T09:53:26;17.70;60.50
75517;DHT22;64097;52.548;13.406;2024-02-16T09:55:52;17.80;60.10
75517;DHT22;64097;52.548;13.406;2024-02-16T09:58:19;17.80;60.10
75517;DHT22;64097;52.548;13.406;2024-02-16T10:00:52;17.90;59.90
75517;DHT22;64097;52.548;13.406;2024-02-16T10:03:29;18.00;60.60
75517;DHT22;64097;52.548;13.406;2024-02-16T10:06:05;18.10;59.70
75517;DHT22;64097;52.548;13.406;2024-02-16T10:08:32;18.10;59.40
75517;DHT22;64097;52.548;13.406;2024-02-16T10:11:03;18.20;59.30
75517;DHT22;64097;52.548;13.406;2024-02-16T10:13:30;18.20;59.10
75517;DHT22;64097;52.548;13.406;2024-02-16T10:16:10;18.20;58.90
75517;DHT22;64097;52.548;13.406;2024-02-16T10:18:39;18.30;58.80
75517;DHT22;64097;52.548;13.406;2024-02-16T10:21:05;18.30;58.50
75517;DHT22;64097;52.548;13.406;2024-02-16T10:23:31;18.40;58.50
75517;DHT22;64097;52.548;13.406;2024-02-16T10:25:58;18.40;58.30
75517;DHT22;64097;52.548;13.406;2024-02-16T10:28:25;18.40;58.30
75517;DHT22;64097;52.548;13.406;2024-02-16T10:31:00;18.40;58.10
75517;DHT22;64097;52.548;13.406;2024-02-16T10:33:28;18.40;58.10
75517;DHT22;64097;52.548;13.406;2024-02-16T10:35:58;18.50;58.00
75517;DHT22;64097;52.548;13.406;2024-02-16T10:38:25;18.40;57.80
75517;DHT22;64097;52.548;13.406;2024-02-16T10:40:53;18.50;57.70
75517;DHT22;64097;52.548;13.406;2024-02-16T10:43:21;18.50;57.60
75517;DHT22;64097;52.548;13.406;2024-02-16T10:45:48;18.50;57.60
75517;DHT22;64097;52.548;13.406;2024-02-16T10:48:18;18.50;57.50
75517;DHT22;64097;52.548;13.406;2024-02-16T10:50:44;18.50;57.40
75517;DHT22;64097;52.548;13.406;2024-02-16T10:55:36;18.60;57.30
75517;DHT22;64097;52.548;13.406;2024-02-16T10:58:02;18.60;57.20
75517;DHT22;64097;52.548;13.406;2024-02-16T11:00:27;18.60;58.00
75517;DHT22;64097;52.548;13.406;2024-02-16T11:02:54;18.60;57.20
75517;DHT22;64097;52.548;13.406;2024-02-16T11:05:35;18.60;56.90
75517;DHT22;64097;52.548;13.406;2024-02-16T11:08:05;18.60;56.90
75517;DHT22;64097;52.548;13.406;2024-02-16T11:10:31;18.70;57.10
75517;DHT22;64097;52.548;13.406;2024-02-16T11:13:03;18.70;56.90
75517;DHT22;64097;52.548;13.406;2024-02-16T11:15:34;18.70;56.90
75517;DHT22;64097;52.548;13.406;2024-02-16T11:18:02;18.70;56.80
75517;DHT22;64097;52.548;13.406;2024-02-16T11:20:28;18.70;56.90
75517;DHT22;64097;52.548;13.406;2024-02-16T11:23:13;18.80;56.70
75517;DHT22;64097;52.548;13.406;2024-02-16T11:25:49;18.70;56.80
75517;DHT22;64097;52.548;13.406;2024-02-16T11:28:15;18.80;56.70
75517;DHT22;64097;52.548;13.406;2024-02-16T11:30:42;18.80;56.60
75517;DHT22;64097;52.548;13.406;2024-02-16T11:33:10;18.80;56.70
75517;DHT22;64097;52.548;13.406;2024-02-16T11:35:36;18.80;56.50
75517;DHT22;64097;52.548;13.406;2024-02-16T11:38:02;18.80;56.50
75517;DHT22;64097;52.548;13.406;2024-02-16T11:40:28;18.80;56.50
75517;DHT22;64097;52.548;13.406;2024-02-16T11:43:00;18.90;56.50
75517;DHT22;64097;52.548;13.406;2024-02-16T11:45:26;18.80;56.40
75517;DHT22;64097;52.548;13.406;2024-02-16T11:48:03;18.90;56.50
75517;DHT22;64097;52.548;13.406;2024-02-16T11:50:29;18.90;56.50
75517;DHT22;64097;52.548;13.406;2024-02-16T11:52:55;19.00;56.70
75517;DHT22;64097;52.548;13.406;2024-02-16T11:55:21;19.00;56.60
75517;DHT22;64097;52.548;13.406;2024-02-16T11:57:46;19.10;56.40
75517;DHT22;64097;52.548;13.406;2024-02-16T12:00:16;19.20;56.20
75517;DHT22;64097;52.548;13.406;2024-02-16T12:02:42;19.20;56.50
75517;DHT22;64097;52.548;13.406;2024-02-16T12:05:08;19.30;56.60
75517;DHT22;64097;52.548;13.406;2024-02-16T12:07:37;19.40;56.60
75517;DHT22;64097;52.548;13.406;2024-02-16T12:10:06;19.40;56.60
75517;DHT22;64097;52.548;13.406;2024-02-16T12:12:32;19.50;56.40
75517;DHT22;64097;52.548;13.406;2024-02-16T12:14:58;19.60;55.80
75517;DHT22;64097;52.548;13.406;2024-02-16T12:17:24;19.60;55.90
75517;DHT22;64097;52.548;13.406;2024-02-16T12:19:51;19.70;55.70
75517;DHT22;64097;52.548;13.406;2024-02-16T12:22:18;19.80;55.60
75517;DHT22;64097;52.548;13.406;2024-02-16T12:24:48;19.80;55.50
75517;DHT22;64097;52.548;13.406;2024-02-16T12:27:15;19.80;55.20
75517;DHT22;64097;52.548;13.406;2024-02-16T12:29:41;19.90;54.70
75517;DHT22;64097;52.548;13.406;2024-02-16T12:32:07;20.00;55.00
75517;DHT22;64097;52.548;13.406;2024-02-16T12:34:37;20.00;55.00
75517;DHT22;64097;52.548;13.406;2024-02-16T12:37:06;20.00;54.80
75517;DHT22;64097;52.548;13.406;2024-02-16T12:39:37;20.10;54.90
75517;DHT22;64097;52.548;13.406;2024-02-16T12:42:02;20.10;54.10
75517;DHT22;64097;52.548;13.406;2024-02-16T12:44:28;20.20;54.30
75517;DHT22;64097;52.548;13.406;2024-02-16T12:46:54;20.20;54.60
75517;DHT22;64097;52.548;13.406;2024-02-16T12:49:20;20.30;54.50
75517;DHT22;64097;52.548;13.406;2024-02-16T12:51:51;20.30;54.60
75517;DHT22;64097;52.548;13.406;2024-02-16T12:54:18;20.30;54.20
75517;DHT22;64097;52.548;13.406;2024-02-16T12:56:48;20.40;54.20
75517;DHT22;64097;52.548;13.406;2024-02-16T12:59:15;20.40;54.00
75517;DHT22;64097;52.548;13.406;2024-02-16T13:01:41;20.40;53.80
75517;DHT22;64097;52.548;13.406;2024-02-16T13:04:08;20.50;53.90
75517;DHT22;64097;52.548;13.406;2024-02-16T13:06:34;20.50;53.60
75517;DHT22;64097;52.548;13.406;2024-02-16T13:08:59;20.50;53.30
75517;DHT22;64097;52.548;13.406;2024-02-16T13:11:25;20.50;53.40
75517;DHT22;64097;52.548;13.406;2024-02-16T13:13:51;20.50;53.70
75517;DHT22;64097;52.548;13.406;2024-02-16T13:16:18;20.50;53.70
75517;DHT22;64097;52.548;13.406;2024-02-16T13:18:43;20.60;53.80
75517;DHT22;64097;52.548;13.406;2024-02-16T13:21:09;20.60;53.60
75517;DHT22;64097;52.548;13.406;2024-02-16T13:23:35;20.60;53.50
75517;DHT22;64097;52.548;13.406;2024-02-16T13:26:01;20.60;53.40
75517;DHT22;64097;52.548;13.406;2024-02-16T13:28:27;20.60;53.40
75517;DHT22;64097;52.548;13.406;2024-02-16T13:30:52;20.60;53.10
75517;DHT22;64097;52.548;13.406;2024-02-16T13:33:18;20.70;53.10
75517;DHT22;64097;52.548;13.406;2024-02-16T13:35:44;20.70;53.10
75517;DHT22;64097;52.548;13.406;2024-02-16T13:38:10;20.70;53.50
75517;DHT22;64097;52.548;13.406;2024-02-16T13:40:35;20.70;53.40
75517;DHT22;64097;52.548;13.406;2024-02-16T13:43:01;20.70;53.50
75517;DHT22;64097;52.548;13.406;2024-02-16T13:45:30;20.70;53.40
75517;DHT22;64097;52.548;13.406;2024-02-16T13:48:11;20.70;53.50
75517;DHT22;64097;52.548;13.406;2024-02-16T13:50:36;20.70;53.50
75517;DHT22;64097;52.548;13.406;2024-02-16T13:53:02;20.80;53.40
75517;DHT22;64097;52.548;13.406;2024-02-16T13:55:28;20.80;53.20
75517;DHT22;64097;52.548;13.406;2024-02-16T13:57:54;20.80;53.20
